Time;durP1;ratioP1;P1;durP2;ratioP2;P2;SDS_P1;SDS_P2;PMS_P1;PMS_P2;Temp;Humidity;BMP_temperature;BMP_pressure;BME280_temperature;BME280_humidity;BME280_pressure;Samples;Min_cycle;Max_cycle;Signal;HPM_P1;HPM_P2
2022/03/15 00:01:08;;;;;;;;;;;8.20;1.00;;;;;;5116547;28;19916;-83
2022/03/15 00:03:33;;;;;;;;;;;8.20;1.00;;;;;;5112323;28;19933;-85
2022/03/15 00:05:59;;;;;;;;;;;8.10;1.00;;;;;;5118819;28;20049;-84
2022/03/15 00:08:26;;;;;;;;;;;8.10;1.00;;;;;;5129758;27;19911;-84
2022/03/15 00:10:54;;;;;;;;;;;8.10;1.00;;;;;;5119298;28;20059;-85
2022/03/15 00:13:20;;;;;;;;;;;8.00;1.00;;;;;;5122032;27;19932;-84
2022/03/15 00:15:46;;;;;;;;;;;8.00;1.00;;;;;;5123108;27;19967;-84
2022/03/15 00:18:11;;;;;;;;;;;8.00;1.00;;;;;;5114157;27;19951;-84
2022/03/15 00:20:37;;;;;;;;;;;8.00;1.00;;;;;;5119581;27;19938;-83
2022/03/15 00:23:03;;;;;;;;;;;8.00;1.00;;;;;;5138151;27;19912;-85
2022/03/15 00:25:29;;;;;;;;;;;7.90;1.00;;;;;;5122407;27;20387;-84
2022/03/15 00:27:56;;;;;;;;;;;7.90;1.00;;;;;;5130627;27;19965;-84
2022/03/15 00:30:23;;;;;;;;;;;7.90;1.00;;;;;;5138521;27;19911;-85
2022/03/15 00:32:48;;;;;;;;;;;7.90;1.00;;;;;;5114270;27;19916;-84
2022/03/15 00:35:18;;;;;;;;;;;7.90;1.00;;;;;;5112726;27;19999;-83
2022/03/15 00:37:47;;;;;;;;;;;7.80;1.00;;;;;;5131669;27;19908;-84
2022/03/15 00:40:13;;;;;;;;;;;7.80;1.00;;;;;;5128301;27;19920;-83
2022/03/15 00:42:40;;;;;;;;;;;7.70;1.00;;;;;;5132758;27;20283;-83
2022/03/15 00:45:06;;;;;;;;;;;7.70;1.00;;;;;;5119614;27;19918;-84
2022/03/15 00:47:34;;;;;;;;;;;7.70;1.00;;;;;;5132617;27;20383;-83
2022/03/15 00:49:59;;;;;;;;;;;7.60;1.00;;;;;;5127473;27;19908;-82
2022/03/15 00:52:25;;;;;;;;;;;7.60;1.00;;;;;;5135930;27;19912;-84
2022/03/15 00:54:50;;;;;;;;;;;7.60;1.00;;;;;;5135773;27;19908;-85
2022/03/15 00:57:16;;;;;;;;;;;7.60;1.00;;;;;;5132243;27;19918;-84
2022/03/15 00:59:41;;;;;;;;;;;7.60;1.00;;;;;;5140330;27;19912;-84
2022/03/15 01:02:07;;;;;;;;;;;7.50;1.00;;;;;;5112647;27;19990;-83
2022/03/15 01:04:32;;;;;;;;;;;7.50;1.00;;;;;;5115153;28;19908;-83
2022/03/15 01:06:58;;;;;;;;;;;7.60;1.00;;;;;;5113891;27;20397;-85
2022/03/15 01:09:23;;;;;;;;;;;7.50;1.00;;;;;;5133573;27;19918;-83
2022/03/15 01:11:49;;;;;;;;;;;7.60;1.00;;;;;;5140499;27;19960;-83
2022/03/15 01:14:15;;;;;;;;;;;7.50;1.00;;;;;;5121424;27;19961;-83
2022/03/15 01:16:41;;;;;;;;;;;7.50;1.00;;;;;;5133906;27;19972;-83
2022/03/15 01:19:07;;;;;;;;;;;7.40;1.00;;;;;;5121065;27;19908;-83
2022/03/15 01:21:35;;;;;;;;;;;7.40;1.00;;;;;;5113516;27;20411;-83
2022/03/15 01:24:00;;;;;;;;;;;7.40;1.00;;;;;;5120380;27;19912;-86
2022/03/15 01:26:26;;;;;;;;;;;7.30;1.00;;;;;;5137227;27;19949;-86
2022/03/15 01:28:52;;;;;;;;;;;7.30;1.00;;;;;;5118677;27;19919;-83
2022/03/15 01:31:17;;;;;;;;;;;7.30;1.00;;;;;;5128962;27;19923;-85
2022/03/15 01:33:43;;;;;;;;;;;7.30;1.00;;;;;;5116144;28;19916;-85
2022/03/15 01:36:08;;;;;;;;;;;7.30;1.00;;;;;;5137144;27;19919;-84
2022/03/15 01:38:34;;;;;;;;;;;7.20;91.10;;;;;;5112349;28;19953;-83
2022/03/15 01:40:59;;;;;;;;;;;7.20;99.90;;;;;;5135803;27;19943;-84
2022/03/15 01:43:25;;;;;;;;;;;7.20;99.90;;;;;;5138924;27;19915;-84
2022/03/15 01:45:50;;;;;;;;;;;7.20;99.90;;;;;;5139255;27;19916;-83
2022/03/15 01:48:16;;;;;;;;;;;7.20;99.90;;;;;;5104893;27;19981;-85
2022/03/15 01:50:41;;;;;;;;;;;7.20;99.90;;;;;;5120738;27;19934;-83
2022/03/15 01:53:07;;;;;;;;;;;7.30;99.90;;;;;;5113762;27;19951;-83
2022/03/15 01:55:34;;;;;;;;;;;7.30;99.90;;;;;;5105428;27;19915;-85
2022/03/15 01:57:59;;;;;;;;;;;7.30;99.90;;;;;;5114709;27;19908;-84
2022/03/15 02:00:25;;;;;;;;;;;7.20;99.90;;;;;;5130367;27;19915;-84
2022/03/15 02:02:50;;;;;;;;;;;7.20;99.90;;;;;;5137085;27;20347;-85
2022/03/15 02:05:16;;;;;;;;;;;7.10;99.90;;;;;;5139084;27;19912;-84
2022/03/15 02:07:41;;;;;;;;;;;7.10;99.90;;;;;;5119647;27;19911;-85
2022/03/15 02:10:07;;;;;;;;;;;7.10;99.90;;;;;;5139187;27;20003;-84
2022/03/15 02:12:37;;;;;;;;;;;7.00;99.90;;;;;;5135557;27;19911;-83
2022/03/15 02:15:03;;;;;;;;;;;7.00;99.90;;;;;;5114749;27;19999;-85
2022/03/15 02:17:29;;;;;;;;;;;7.00;99.90;;;;;;5135551;27;19911;-83
2022/03/15 02:19:54;;;;;;;;;;;6.90;99.90;;;;;;5130501;27;19918;-84
2022/03/15 02:22:20;;;;;;;;;;;7.00;1.00;;;;;;5128473;27;19933;-85
2022/03/15 02:24:45;;;;;;;;;;;6.90;1.00;;;;;;5139002;27;20375;-84
2022/03/15 02:27:11;;;;;;;;;;;6.90;1.00;;;;;;5136989;27;20022;-83
2022/03/15 02:29:36;;;;;;;;;;;6.80;8.90;;;;;;5124072;27;19912;-84
2022/03/15 02:32:02;;;;;;;;;;;6.80;99.90;;;;;;5126606;27;19935;-83
2022/03/15 02:34:28;;;;;;;;;;;6.80;99.90;;;;;;5117089;27;19933;-85
2022/03/15 02:36:53;;;;;;;;;;;6.80;99.90;;;;;;5113443;28;19999;-84
2022/03/15 02:39:19;;;;;;;;;;;6.80;99.90;;;;;;5134493;27;20339;-85
2022/03/15 02:41:44;;;;;;;;;;;6.80;99.90;;;;;;5108352;28;19927;-84
2022/03/15 02:44:11;;;;;;;;;;;6.80;99.90;;;;;;5110884;27;19911;-83
2022/03/15 02:46:39;;;;;;;;;;;6.80;67.50;;;;;;5120980;27;20013;-83
2022/03/15 02:49:09;;;;;;;;;;;6.80;56.30;;;;;;5121222;27;19911;-87
2022/03/15 02:51:35;;;;;;;;;;;6.80;93.70;;;;;;5113291;27;19911;-83
2022/03/15 02:54:04;;;;;;;;;;;6.80;92.40;;;;;;5121370;27;20279;-85
2022/03/15 02:56:31;;;;;;;;;;;6.80;1.00;;;;;;5138010;27;19912;-83
2022/03/15 02:58:56;;;;;;;;;;;6.60;99.90;;;;;;5123250;27;19908;-85
2022/03/15 03:01:22;;;;;;;;;;;6.70;99.90;;;;;;5127826;27;19976;-83
2022/03/15 03:03:47;;;;;;;;;;;6.60;1.00;;;;;;5135442;27;19911;-83
2022/03/15 03:06:13;;;;;;;;;;;6.50;56.80;;;;;;5112920;27;19919;-84
2022/03/15 03:08:39;;;;;;;;;;;6.40;1.00;;;;;;5135067;28;19912;-82
2022/03/15 03:11:05;;;;;;;;;;;6.40;99.90;;;;;;5117778;28;19918;-83
2022/03/15 03:13:31;;;;;;;;;;;6.40;99.90;;;;;;5129097;28;19907;-84
2022/03/15 03:15:58;;;;;;;;;;;6.30;1.00;;;;;;5128852;28;20289;-84
2022/03/15 03:18:23;;;;;;;;;;;6.30;1.00;;;;;;5119303;28;20030;-83
2022/03/15 03:20:50;;;;;;;;;;;6.30;99.90;;;;;;5118091;28;19972;-83
2022/03/15 03:23:16;;;;;;;;;;;6.30;99.90;;;;;;5117877;28;19907;-84
2022/03/15 03:25:42;;;;;;;;;;;6.30;81.50;;;;;;5105397;28;19912;-82
2022/03/15 03:28:08;;;;;;;;;;;6.30;1.00;;;;;;5117853;28;19998;-84
2022/03/15 03:30:37;;;;;;;;;;;6.30;1.00;;;;;;5117526;28;19968;-84
2022/03/15 03:33:03;;;;;;;;;;;6.30;99.90;;;;;;5111756;28;19946;-85
2022/03/15 03:35:30;;;;;;;;;;;6.20;99.90;;;;;;5100158;28;19907;-85
2022/03/15 03:37:55;;;;;;;;;;;6.20;99.90;;;;;;5102358;28;19912;-85
2022/03/15 03:40:21;;;;;;;;;;;6.20;99.90;;;;;;5117924;28;19915;-84
2022/03/15 03:42:47;;;;;;;;;;;6.20;84.00;;;;;;5112572;27;19915;-83
2022/03/15 03:45:12;;;;;;;;;;;6.20;17.60;;;;;;5122220;27;20165;-83
2022/03/15 03:47:38;;;;;;;;;;;6.30;22.80;;;;;;5129974;27;19912;-83
2022/03/15 03:50:04;;;;;;;;;;;6.30;1.00;;;;;;5138587;27;19908;-85
2022/03/15 03:52:30;;;;;;;;;;;6.30;1.00;;;;;;5118412;27;19919;-84
2022/03/15 03:54:55;;;;;;;;;;;6.40;99.90;;;;;;5126150;27;19931;-84
2022/03/15 03:57:23;;;;;;;;;;;6.40;99.90;;;;;;5137067;27;19908;-83
2022/03/15 03:59:48;;;;;;;;;;;6.40;99.90;;;;;;5140247;27;20282;-85
2022/03/15 04:02:14;;;;;;;;;;;6.40;1.00;;;;;;5110001;27;19907;-85
2022/03/15 04:04:39;;;;;;;;;;;6.40;1.00;;;;;;5116685;28;20677;-83
2022/03/15 04:07:07;;;;;;;;;;;6.40;1.00;;;;;;5135841;27;19923;-83
2022/03/15 04:09:33;;;;;;;;;;;6.40;1.00;;;;;;5126301;27;20408;-83
2022/03/15 04:11:59;;;;;;;;;;;6.40;54.80;;;;;;5140615;27;19997;-82
2022/03/15 04:14:25;;;;;;;;;;;6.40;96.50;;;;;;5113778;27;19937;-83
2022/03/15 04:16:51;;;;;;;;;;;6.40;46.80;;;;;;5114917;27;19911;-83
2022/03/15 04:19:16;;;;;;;;;;;6.50;99.90;;;;;;5118889;27;20002;-83
2022/03/15 04:21:42;;;;;;;;;;;6.50;10.60;;;;;;5129236;27;19908;-83
2022/03/15 04:24:07;;;;;;;;;;;6.50;1.00;;;;;;5139383;27;19911;-83
2022/03/15 04:26:33;;;;;;;;;;;6.50;99.90;;;;;;5140670;27;19915;-84
2022/03/15 04:28:58;;;;;;;;;;;6.60;99.90;;;;;;5113748;28;19919;-83
2022/03/15 04:31:24;;;;;;;;;;;6.60;99.90;;;;;;5121646;27;19912;-83
2022/03/15 04:33:49;;;;;;;;;;;6.70;1.00;;;;;;5122054;27;19923;-84
2022/03/15 04:36:15;;;;;;;;;;;6.60;1.00;;;;;;5122198;27;19911;-83
2022/03/15 04:38:41;;;;;;;;;;;6.60;1.00;;;;;;5139040;27;19912;-85
2022/03/15 04:41:06;;;;;;;;;;;6.60;1.00;;;;;;5122032;27;19922;-84
2022/03/15 04:43:32;;;;;;;;;;;6.60;99.90;;;;;;5131953;27;20038;-84
2022/03/15 04:45:58;;;;;;;;;;;6.50;99.90;;;;;;5117062;27;19947;-83
2022/03/15 04:48:24;;;;;;;;;;;6.50;1.00;;;;;;5118000;27;20387;-84
2022/03/15 04:50:50;;;;;;;;;;;6.40;1.00;;;;;;5146577;27;19922;-83
2022/03/15 04:53:16;;;;;;;;;;;6.40;99.90;;;;;;5124534;27;19912;-83
2022/03/15 04:55:42;;;;;;;;;;;6.40;99.90;;;;;;5136620;27;19976;-84
2022/03/15 04:58:08;;;;;;;;;;;6.40;99.90;;;;;;5138482;27;19947;-84
2022/03/15 05:00:33;;;;;;;;;;;6.40;99.90;;;;;;5113014;27;19916;-83
2022/03/15 05:02:59;;;;;;;;;;;6.50;99.90;;;;;;5134044;27;19912;-83
2022/03/15 05:05:24;;;;;;;;;;;6.40;99.90;;;;;;5135607;27;19923;-84
2022/03/15 05:07:50;;;;;;;;;;;6.40;99.90;;;;;;5115587;27;19990;-83
2022/03/15 05:13:01;;;;;;;;;;;6.50;99.90;;;;;;5133835;27;19965;-84
2022/03/15 05:15:26;;;;;;;;;;;6.50;99.90;;;;;;5116951;27;19912;-83
2022/03/15 05:17:52;;;;;;;;;;;6.50;99.90;;;;;;5119627;27;19918;-84
2022/03/15 05:20:18;;;;;;;;;;;6.50;99.90;;;;;;5114102;27;19918;-84
2022/03/15 05:22:44;;;;;;;;;;;6.60;99.90;;;;;;5132715;27;19934;-84
2022/03/15 05:25:10;;;;;;;;;;;6.60;99.90;;;;;;5117786;27;19912;-84
2022/03/15 05:27:36;;;;;;;;;;;6.50;99.90;;;;;;5132377;27;20002;-84
2022/03/15 05:30:02;;;;;;;;;;;6.50;99.90;;;;;;5119920;27;20063;-84
2022/03/15 05:32:28;;;;;;;;;;;6.50;1.00;;;;;;5111032;28;19911;-82
2022/03/15 05:34:54;;;;;;;;;;;6.50;1.00;;;;;;5134062;27;19912;-83
2022/03/15 05:37:19;;;;;;;;;;;6.50;1.00;;;;;;5115669;27;19937;-83
2022/03/15 05:39:45;;;;;;;;;;;6.50;1.00;;;;;;5110091;27;20284;-83
2022/03/15 05:42:12;;;;;;;;;;;6.50;1.00;;;;;;5115208;27;19919;-83
2022/03/15 05:44:38;;;;;;;;;;;6.50;1.00;;;;;;5117440;27;20322;-83
2022/03/15 05:47:04;;;;;;;;;;;6.50;1.00;;;;;;5116338;27;19922;-83
2022/03/15 05:49:29;;;;;;;;;;;6.50;1.00;;;;;;5131714;27;20006;-84
2022/03/15 05:51:55;;;;;;;;;;;6.50;1.00;;;;;;5136537;27;20325;-83
2022/03/15 05:54:20;;;;;;;;;;;6.50;1.00;;;;;;5112225;27;20010;-83
2022/03/15 05:56:46;;;;;;;;;;;6.50;1.00;;;;;;5112484;27;19911;-83
2022/03/15 05:59:11;;;;;;;;;;;6.50;1.00;;;;;;5117533;27;19963;-82
2022/03/15 06:01:37;;;;;;;;;;;6.50;99.90;;;;;;5116086;27;19923;-83
2022/03/15 06:04:05;;;;;;;;;;;6.50;99.90;;;;;;5134915;27;19912;-82
2022/03/15 06:06:30;;;;;;;;;;;6.50;1.00;;;;;;5129386;27;20260;-82
2022/03/15 06:08:56;;;;;;;;;;;6.50;1.00;;;;;;5133388;27;19918;-82
2022/03/15 06:11:21;;;;;;;;;;;6.50;1.00;;;;;;5129322;27;19955;-82
2022/03/15 06:13:47;;;;;;;;;;;6.50;1.00;;;;;;5124453;27;19965;-82
2022/03/15 06:16:18;;;;;;;;;;;6.40;1.00;;;;;;5134291;27;19919;-83
2022/03/15 06:18:44;;;;;;;;;;;6.40;1.00;;;;;;5116056;27;19912;-82
2022/03/15 06:21:09;;;;;;;;;;;6.50;1.00;;;;;;5115244;27;20385;-83
2022/03/15 06:23:35;;;;;;;;;;;6.60;99.90;;;;;;5126682;27;20014;-82
2022/03/15 06:26:00;;;;;;;;;;;6.60;1.00;;;;;;5130959;27;19923;-83
2022/03/15 06:28:26;;;;;;;;;;;6.60;1.00;;;;;;5111739;27;19950;-83
2022/03/15 06:30:52;;;;;;;;;;;6.70;99.90;;;;;;5130783;27;19919;-84
2022/03/15 06:33:17;;;;;;;;;;;6.70;99.90;;;;;;5131720;27;20299;-84
2022/03/15 06:35:43;;;;;;;;;;;6.80;99.90;;;;;;5132838;27;19946;-82
2022/03/15 06:38:08;;;;;;;;;;;6.80;99.90;;;;;;5127924;27;19918;-83
2022/03/15 06:40:35;;;;;;;;;;;6.90;1.00;;;;;;5114768;27;19918;-82
2022/03/15 06:43:02;;;;;;;;;;;7.00;99.90;;;;;;5108497;27;19953;-82
2022/03/15 06:45:28;;;;;;;;;;;7.10;99.90;;;;;;5109103;28;20280;-82
2022/03/15 06:47:53;;;;;;;;;;;7.20;4.10;;;;;;5131864;27;19918;-82
2022/03/15 06:50:19;;;;;;;;;;;7.30;1.00;;;;;;5134403;27;19912;-84
2022/03/15 06:52:45;;;;;;;;;;;7.30;1.00;;;;;;5115058;27;20425;-82
2022/03/15 06:55:11;;;;;;;;;;;7.40;1.00;;;;;;5131337;27;19918;-82
2022/03/15 06:57:37;;;;;;;;;;;7.40;1.00;;;;;;5114393;27;20010;-82
2022/03/15 07:00:07;;;;;;;;;;;7.50;1.00;;;;;;5134327;27;19911;-81
2022/03/15 07:02:32;;;;;;;;;;;7.50;99.90;;;;;;5134349;27;19958;-82
2022/03/15 07:04:58;;;;;;;;;;;7.60;99.90;;;;;;5117422;27;19911;-82
2022/03/15 07:07:23;;;;;;;;;;;7.60;99.90;;;;;;5104277;28;20726;-83
2022/03/15 07:09:49;;;;;;;;;;;7.60;99.90;;;;;;5116386;28;19919;-83
2022/03/15 07:12:14;;;;;;;;;;;7.60;99.90;;;;;;5131260;27;19920;-83
2022/03/15 07:14:40;;;;;;;;;;;7.70;99.90;;;;;;5128593;28;19920;-83
2022/03/15 07:17:05;;;;;;;;;;;7.70;99.90;;;;;;5128891;27;19912;-83
2022/03/15 07:19:31;;;;;;;;;;;7.80;99.90;;;;;;5131174;28;20002;-83
2022/03/15 07:21:56;;;;;;;;;;;7.80;99.90;;;;;;5125663;28;20318;-81
2022/03/15 07:24:22;;;;;;;;;;;7.90;99.90;;;;;;5132218;28;20314;-82
2022/03/15 07:26:47;;;;;;;;;;;7.90;74.10;;;;;;5114666;28;19916;-81
2022/03/15 07:29:13;;;;;;;;;;;8.00;47.40;;;;;;5112749;28;19912;-82
2022/03/15 07:31:39;;;;;;;;;;;8.10;20.30;;;;;;5131241;28;19912;-81
2022/03/15 07:34:04;;;;;;;;;;;8.10;1.00;;;;;;5131584;28;19911;-83
2022/03/15 07:36:29;;;;;;;;;;;8.20;1.00;;;;;;5127333;27;19926;-82
2022/03/15 07:38:55;;;;;;;;;;;8.20;1.00;;;;;;5129565;28;19918;-82
2022/03/15 07:41:23;;;;;;;;;;;8.30;1.00;;;;;;5133574;28;20006;-82
2022/03/15 07:43:49;;;;;;;;;;;8.30;1.00;;;;;;5132940;28;19919;-82
2022/03/15 07:46:17;;;;;;;;;;;8.30;1.00;;;;;;5110993;28;20348;-82
2022/03/15 07:48:43;;;;;;;;;;;8.30;1.00;;;;;;5133488;28;19919;-83
2022/03/15 07:51:08;;;;;;;;;;;8.30;1.00;;;;;;5129463;28;19995;-82
2022/03/15 07:53:34;;;;;;;;;;;8.40;1.00;;;;;;5112476;28;19911;-83
2022/03/15 07:56:00;;;;;;;;;;;8.40;1.00;;;;;;5116918;28;20014;-82
2022/03/15 07:58:26;;;;;;;;;;;8.40;1.00;;;;;;5111267;28;19975;-83
2022/03/15 08:00:56;;;;;;;;;;;8.40;1.00;;;;;;5126686;28;20519;-82
2022/03/15 08:03:22;;;;;;;;;;;8.40;1.00;;;;;;5110651;28;19951;-83
2022/03/15 08:05:48;;;;;;;;;;;8.40;1.00;;;;;;5136647;28;19919;-83
2022/03/15 08:08:15;;;;;;;;;;;8.50;1.00;;;;;;5138917;28;19962;-82
2022/03/15 08:10:41;;;;;;;;;;;8.50;1.00;;;;;;5110353;28;19912;-82
2022/03/15 08:13:06;;;;;;;;;;;8.60;1.00;;;;;;5129873;28;20302;-82
2022/03/15 08:15:32;;;;;;;;;;;8.70;1.00;;;;;;5099726;28;19941;-81
2022/03/15 08:17:57;;;;;;;;;;;8.80;1.00;;;;;;5124018;27;19918;-83
2022/03/15 08:20:27;;;;;;;;;;;8.80;1.00;;;;;;5112574;28;19911;-84
2022/03/15 08:22:54;;;;;;;;;;;8.70;1.00;;;;;;5130894;28;19957;-84
2022/03/15 08:25:20;;;;;;;;;;;8.70;1.00;;;;;;5118965;28;19919;-82
2022/03/15 08:27:45;;;;;;;;;;;8.70;1.00;;;;;;5128666;28;20368;-83
2022/03/15 08:30:11;;;;;;;;;;;8.70;1.00;;;;;;5112443;27;19923;-82
2022/03/15 08:32:36;;;;;;;;;;;8.70;1.00;;;;;;5135238;27;19936;-82
2022/03/15 08:35:03;;;;;;;;;;;8.80;1.00;;;;;;5137412;27;19945;-82
2022/03/15 08:37:28;;;;;;;;;;;8.90;1.00;;;;;;5118584;27;19911;-83
2022/03/15 08:39:55;;;;;;;;;;;8.80;1.00;;;;;;5118537;27;19919;-83
2022/03/15 08:42:21;;;;;;;;;;;8.90;1.00;;;;;;5116402;28;20360;-83
2022/03/15 08:44:49;;;;;;;;;;;9.00;99.90;;;;;;5117327;27;19922;-84
2022/03/15 08:47:15;;;;;;;;;;;9.00;99.90;;;;;;5132695;27;19916;-83
2022/03/15 08:49:41;;;;;;;;;;;9.00;1.00;;;;;;5116209;27;20325;-81
2022/03/15 08:52:08;;;;;;;;;;;9.00;1.00;;;;;;5129452;27;19915;-83
2022/03/15 08:54:34;;;;;;;;;;;9.10;1.00;;;;;;5130706;27;19954;-82
2022/03/15 08:57:00;;;;;;;;;;;9.10;1.00;;;;;;5113704;27;19934;-83
2022/03/15 08:59:25;;;;;;;;;;;9.20;1.00;;;;;;5128924;27;20003;-84
2022/03/15 09:01:51;;;;;;;;;;;9.10;1.00;;;;;;5128512;27;19922;-84
2022/03/15 09:04:17;;;;;;;;;;;9.10;99.90;;;;;;5109909;28;20684;-83
2022/03/15 09:06:47;;;;;;;;;;;9.00;1.00;;;;;;5115682;27;19920;-81
2022/03/15 09:09:13;;;;;;;;;;;9.10;99.90;;;;;;5118085;27;20386;-82
2022/03/15 09:11:39;;;;;;;;;;;9.10;1.00;;;;;;5116207;27;19915;-82
2022/03/15 09:14:05;;;;;;;;;;;9.00;99.90;;;;;;5110902;27;19916;-83
2022/03/15 09:16:30;;;;;;;;;;;9.00;1.00;;;;;;5131472;27;20302;-81
2022/03/15 09:18:57;;;;;;;;;;;9.00;1.00;;;;;;5131127;27;19960;-84
2022/03/15 09:21:26;;;;;;;;;;;9.10;37.60;;;;;;5125458;27;19908;-83
2022/03/15 09:23:51;;;;;;;;;;;9.20;89.40;;;;;;5110821;27;19912;-82
2022/03/15 09:26:17;;;;;;;;;;;9.20;99.90;;;;;;5126627;27;20377;-82
2022/03/15 09:28:44;;;;;;;;;;;9.20;99.90;;;;;;5108699;27;20375;-83
2022/03/15 09:31:09;;;;;;;;;;;9.30;99.90;;;;;;5110321;27;19915;-83
2022/03/15 09:33:35;;;;;;;;;;;9.40;1.00;;;;;;5126803;27;21365;-83
2022/03/15 09:36:01;;;;;;;;;;;9.40;99.90;;;;;;5129074;27;19912;-81
2022/03/15 09:38:27;;;;;;;;;;;9.40;99.90;;;;;;5100153;27;20010;-81
2022/03/15 09:40:53;;;;;;;;;;;9.40;1.00;;;;;;5129027;27;19911;-82
2022/03/15 09:43:21;;;;;;;;;;;9.50;99.90;;;;;;5129681;27;19956;-81
2022/03/15 09:45:48;;;;;;;;;;;9.60;99.90;;;;;;5130263;27;20030;-81
2022/03/15 09:48:17;;;;;;;;;;;9.70;75.90;;;;;;5113406;27;20375;-81
2022/03/15 09:50:45;;;;;;;;;;;9.80;1.00;;;;;;5130306;27;19965;-82
2022/03/15 09:53:10;;;;;;;;;;;9.90;1.00;;;;;;5127760;27;19923;-82
2022/03/15 09:55:37;;;;;;;;;;;10.00;1.00;;;;;;5114899;27;20294;-82
2022/03/15 09:58:03;;;;;;;;;;;10.20;1.00;;;;;;5132901;27;20447;-82
2022/03/15 10:00:29;;;;;;;;;;;10.30;99.90;;;;;;5128804;27;19915;-82
2022/03/15 10:02:55;;;;;;;;;;;10.30;99.90;;;;;;5116562;27;20276;-81
2022/03/15 10:07:31;;;;;;;;;;;10.20;99.90;;;;;;5097853;27;20372;-80
2022/03/15 10:09:57;;;;;;;;;;;10.40;99.90;;;;;;5073205;28;20003;-81
2022/03/15 10:12:22;;;;;;;;;;;10.50;99.90;;;;;;5090097;28;20284;-82
2022/03/15 10:14:48;;;;;;;;;;;10.60;99.90;;;;;;5074815;28;19917;-82
2022/03/15 10:17:14;;;;;;;;;;;10.70;99.90;;;;;;5073651;28;20007;-81
2022/03/15 10:19:56;;;;;;;;;;;10.70;99.90;;;;;;5092749;28;19920;-81
2022/03/15 10:22:23;;;;;;;;;;;10.70;99.90;;;;;;5091482;28;19943;-81
2022/03/15 10:24:48;;;;;;;;;;;10.80;99.90;;;;;;5081422;28;19912;-81
2022/03/15 10:27:15;;;;;;;;;;;10.90;99.90;;;;;;5113099;28;19916;-81
2022/03/15 10:29:41;;;;;;;;;;;10.80;99.90;;;;;;5078409;28;19967;-82
2022/03/15 10:32:06;;;;;;;;;;;10.80;58.00;;;;;;5067055;28;20316;-81
2022/03/15 10:34:32;;;;;;;;;;;10.70;1.00;;;;;;5089343;28;19909;-82
2022/03/15 10:36:57;;;;;;;;;;;10.70;1.00;;;;;;5091177;28;19916;-81
2022/03/15 10:39:24;;;;;;;;;;;10.60;20.20;;;;;;5079191;28;19936;-81
2022/03/15 10:41:50;;;;;;;;;;;10.50;1.00;;;;;;5078785;28;20376;-82
2022/03/15 10:44:25;;;;;;;;;;;10.60;1.00;;;;;;5087840;28;19919;-82
2022/03/15 10:47:03;;;;;;;;;;;10.70;1.00;;;;;;5090297;28;20431;-81
2022/03/15 10:49:29;;;;;;;;;;;10.50;1.00;;;;;;5073298;28;19923;-81
2022/03/15 10:51:55;;;;;;;;;;;10.50;1.00;;;;;;5074162;28;20407;-81
2022/03/15 10:54:22;;;;;;;;;;;10.50;1.00;;;;;;5092077;28;20502;-82
2022/03/15 10:56:51;;;;;;;;;;;10.40;1.00;;;;;;5074073;28;19908;-82
2022/03/15 10:59:16;;;;;;;;;;;10.40;1.00;;;;;;5060061;28;20284;-81
2022/03/15 11:01:42;;;;;;;;;;;10.40;1.00;;;;;;5074119;28;19908;-82
2022/03/15 11:04:09;;;;;;;;;;;10.30;1.00;;;;;;5073370;28;20006;-82
2022/03/15 11:06:39;;;;;;;;;;;10.30;1.00;;;;;;5094293;28;19916;-80
2022/03/15 11:09:15;;;;;;;;;;;10.30;1.00;;;;;;5091987;28;19908;-81
2022/03/15 11:11:42;;;;;;;;;;;10.30;1.00;;;;;;5094154;28;19918;-82
2022/03/15 11:14:08;;;;;;;;;;;10.40;1.00;;;;;;5074941;28;20006;-82
2022/03/15 11:16:36;;;;;;;;;;;10.50;1.00;;;;;;5099419;28;19913;-82
2022/03/15 11:19:02;;;;;;;;;;;10.50;1.00;;;;;;5062341;28;19927;-81
2022/03/15 11:21:29;;;;;;;;;;;10.60;1.00;;;;;;5080807;28;19927;-80
2022/03/15 11:23:57;;;;;;;;;;;10.70;1.00;;;;;;5073138;28;19962;-81
2022/03/15 11:26:24;;;;;;;;;;;10.80;1.00;;;;;;5074554;28;20381;-80
2022/03/15 11:28:49;;;;;;;;;;;10.90;1.00;;;;;;5072938;28;19982;-81
2022/03/15 11:31:15;;;;;;;;;;;10.90;1.00;;;;;;5056026;28;20369;-81
2022/03/15 11:33:44;;;;;;;;;;;10.90;1.00;;;;;;5074990;28;19917;-81
2022/03/15 11:36:10;;;;;;;;;;;10.90;1.00;;;;;;5057255;28;20536;-81
2022/03/15 11:38:37;;;;;;;;;;;10.90;1.00;;;;;;5061175;28;19916;-81
2022/03/15 11:41:02;;;;;;;;;;;10.90;1.00;;;;;;5059534;28;19915;-82
2022/03/15 11:43:47;;;;;;;;;;;10.90;1.00;;;;;;5057443;28;19940;-82
2022/03/15 11:46:26;;;;;;;;;;;10.80;1.00;;;;;;5058161;28;20446;-81
2022/03/15 11:49:04;;;;;;;;;;;10.70;1.00;;;;;;5057128;28;19943;-82
2022/03/15 11:51:38;;;;;;;;;;;10.70;1.00;;;;;;5069677;28;19908;-81
2022/03/15 11:54:16;;;;;;;;;;;10.70;1.00;;;;;;5073764;28;19920;-81
2022/03/15 11:56:53;;;;;;;;;;;10.70;1.00;;;;;;5077711;28;19956;-82
2022/03/15 11:59:19;;;;;;;;;;;10.60;1.00;;;;;;5077932;28;19913;-82
2022/03/15 12:01:44;;;;;;;;;;;10.70;1.00;;;;;;5056479;28;19909;-81
2022/03/15 12:04:10;;;;;;;;;;;10.80;1.00;;;;;;5060762;28;20524;-81
2022/03/15 12:06:35;;;;;;;;;;;10.80;1.00;;;;;;5077219;28;19938;-81
2022/03/15 12:09:03;;;;;;;;;;;10.90;1.00;;;;;;5071177;28;19948;-82
2022/03/15 12:11:35;;;;;;;;;;;11.10;1.00;;;;;;5084682;28;19909;-81
2022/03/15 12:14:16;;;;;;;;;;;11.40;1.00;;;;;;5074335;28;19952;-82
2022/03/15 12:16:43;;;;;;;;;;;11.50;1.00;;;;;;5075121;28;19917;-82
2022/03/15 12:19:27;;;;;;;;;;;11.60;1.00;;;;;;5054054;28;19939;-81
2022/03/15 12:21:58;;;;;;;;;;;11.80;1.00;;;;;;5064791;28;20613;-82
2022/03/15 12:24:30;;;;;;;;;;;12.00;99.90;;;;;;5070171;28;19912;-81
2022/03/15 12:26:58;;;;;;;;;;;12.10;99.90;;;;;;5061224;28;20367;-81
2022/03/15 12:29:26;;;;;;;;;;;12.30;99.90;;;;;;5062998;28;20459;-81
2022/03/15 12:31:52;;;;;;;;;;;12.60;99.90;;;;;;5057394;28;20292;-81
2022/03/15 12:34:19;;;;;;;;;;;13.00;99.90;;;;;;5067254;28;19948;-81
2022/03/15 12:36:55;;;;;;;;;;;13.20;99.90;;;;;;5058419;28;20288;-81
2022/03/15 12:39:22;;;;;;;;;;;13.50;1.00;;;;;;5049332;28;19918;-81
2022/03/15 12:41:48;;;;;;;;;;;13.50;1.00;;;;;;5075861;28;19915;-81
2022/03/15 12:44:14;;;;;;;;;;;13.70;1.00;;;;;;5063658;28;19912;-81
2022/03/15 12:46:41;;;;;;;;;;;13.70;1.00;;;;;;5054416;28;19965;-81
2022/03/15 12:49:08;;;;;;;;;;;13.70;1.00;;;;;;5070728;28;19916;-81
2022/03/15 12:51:41;;;;;;;;;;;13.50;1.00;;;;;;5063918;28;19974;-81
2022/03/15 12:54:10;;;;;;;;;;;13.50;1.00;;;;;;5058460;28;19917;-81
2022/03/15 12:56:58;;;;;;;;;;;13.50;1.00;;;;;;5070507;28;19919;-81
2022/03/15 12:59:24;;;;;;;;;;;13.60;1.00;;;;;;5060427;28;19913;-81
2022/03/15 13:01:50;;;;;;;;;;;13.60;1.00;;;;;;5068328;28;19921;-81
2022/03/15 13:04:16;;;;;;;;;;;13.60;1.00;;;;;;5070762;28;20403;-81
2022/03/15 13:06:44;;;;;;;;;;;13.60;1.00;;;;;;5067202;28;19923;-82
2022/03/15 13:09:09;;;;;;;;;;;13.50;1.00;;;;;;5054291;28;19916;-81
2022/03/15 13:11:45;;;;;;;;;;;13.70;1.00;;;;;;5070242;28;19999;-81
2022/03/15 13:14:11;;;;;;;;;;;13.70;1.00;;;;;;5058397;28;20008;-81
2022/03/15 13:16:44;;;;;;;;;;;13.70;1.00;;;;;;5057529;28;20180;-82
2022/03/15 13:19:10;;;;;;;;;;;14.00;1.00;;;;;;5070359;28;19958;-80
2022/03/15 13:21:38;;;;;;;;;;;14.00;1.00;;;;;;5073088;28;19913;-81
2022/03/15 13:24:08;;;;;;;;;;;14.20;1.00;;;;;;5056860;28;19912;-81
2022/03/15 13:26:33;;;;;;;;;;;14.30;1.00;;;;;;5078204;28;19920;-82
2022/03/15 13:29:00;;;;;;;;;;;14.60;1.00;;;;;;5055447;28;19913;-82
2022/03/15 13:31:26;;;;;;;;;;;14.30;1.00;;;;;;5077710;28;19908;-80
2022/03/15 13:33:54;;;;;;;;;;;14.50;1.00;;;;;;5076529;28;19920;-81
2022/03/15 13:36:27;;;;;;;;;;;15.10;1.00;;;;;;5060689;28;20380;-80
2022/03/15 13:38:53;;;;;;;;;;;15.50;1.00;;;;;;5072178;28;19958;-81
2022/03/15 13:41:19;;;;;;;;;;;16.20;1.00;;;;;;5072943;28;19913;-82
2022/03/15 13:43:46;;;;;;;;;;;16.60;1.00;;;;;;5075553;28;19913;-80
2022/03/15 13:46:12;;;;;;;;;;;16.80;1.00;;;;;;5073537;28;19916;-80
2022/03/15 13:48:39;;;;;;;;;;;17.50;1.00;;;;;;5068594;28;20351;-81
2022/03/15 13:51:07;;;;;;;;;;;17.80;99.90;;;;;;5048960;28;20442;-81
2022/03/15 13:53:33;;;;;;;;;;;17.80;99.90;;;;;;5038232;28;19917;-80
2022/03/15 13:56:08;;;;;;;;;;;17.10;99.90;;;;;;5047683;28;19917;-80
2022/03/15 13:58:34;;;;;;;;;;;16.80;99.90;;;;;;5067457;28;19993;-81
2022/03/15 14:01:03;;;;;;;;;;;16.80;99.90;;;;;;5064245;28;19917;-81
2022/03/15 14:03:30;;;;;;;;;;;16.80;99.90;;;;;;5065408;28;19948;-81
2022/03/15 14:06:03;;;;;;;;;;;16.20;99.90;;;;;;5073222;28;19920;-81
2022/03/15 14:08:28;;;;;;;;;;;15.80;99.90;;;;;;5066110;28;19966;-81
2022/03/15 14:10:54;;;;;;;;;;;15.20;99.90;;;;;;5066559;28;19917;-81
2022/03/15 14:13:23;;;;;;;;;;;14.80;99.90;;;;;;5065085;28;19963;-81
2022/03/15 14:15:49;;;;;;;;;;;14.60;99.90;;;;;;5058035;28;19916;-81
2022/03/15 14:18:26;;;;;;;;;;;14.40;99.90;;;;;;5073131;28;20003;-81
2022/03/15 14:20:51;;;;;;;;;;;14.30;99.90;;;;;;5071066;28;19913;-80
2022/03/15 14:23:17;;;;;;;;;;;14.00;99.90;;;;;;5066688;28;20387;-81
2022/03/15 14:25:43;;;;;;;;;;;13.90;99.90;;;;;;5065885;28;20384;-80
2022/03/15 14:28:09;;;;;;;;;;;13.80;99.90;;;;;;5064128;28;19920;-81
2022/03/15 14:30:36;;;;;;;;;;;13.80;99.90;;;;;;5069467;28;19912;-81
2022/03/15 14:33:05;;;;;;;;;;;13.80;99.90;;;;;;5055603;28;19921;-80
2022/03/15 14:35:34;;;;;;;;;;;13.60;99.90;;;;;;5054083;28;20046;-80